sensor_id;sensor_type;location;lat;lon;timestamp;pressure;altitude;pressure_sealevel;temperature;humidity
18509;BME280;9383;50.928;12.116;2022-08-21T00:00:13;98759.78;;;17.57;100.00
18509;BME280;9383;50.928;12.116;2022-08-21T00:03:18;98822.31;;;17.98;100.00
18509;BME280;9383;50.928;12.116;2022-08-21T00:05:49;98845.34;;;18.15;100.00
18509;BME280;9383;50.928;12.116;2022-08-21T00:08:19;98847.91;;;18.17;100.00
18509;BME280;9383;50.928;12.116;2022-08-21T00:10:47;98835.88;;;18.09;100.00
18509;BME280;9383;50.928;12.116;2022-08-21T00:13:14;98777.63;;;17.71;100.00
18509;BME280;9383;50.928;12.116;2022-08-21T00:15:41;98806.63;;;17.92;100.00
18509;BME280;9383;50.928;12.116;2022-08-21T00:18:09;98847.91;;;18.17;100.00
18509;BME280;9383;50.928;12.116;2022-08-21T00:20:38;98819.97;;;18.06;100.00
18509;BME280;9383;50.928;12.116;2022-08-21T00:23:05;98827.31;;;18.17;100.00
18509;BME280;9383;50.928;12.116;2022-08-21T00:25:31;98835.25;;;18.19;100.00
18509;BME280;9383;50.928;12.116;2022-08-21T00:27:58;98735.56;;;17.58;100.00
18509;BME280;9383;50.928;12.116;2022-08-21T00:30:26;98849.63;;;18.18;100.00
18509;BME280;9383;50.928;12.116;2022-08-21T00:32:55;98844.38;;;18.16;100.00
18509;BME280;9383;50.928;12.116;2022-08-21T00:35:27;98847.16;;;18.14;100.00
18509;BME280;9383;50.928;12.116;2022-08-21T00:37:54;98814.34;;;17.96;100.00
18509;BME280;9383;50.928;12.116;2022-08-21T00:40:28;98842.84;;;18.12;100.00
18509;BME280;9383;50.928;12.116;2022-08-21T00:42:55;98769.25;;;17.63;100.00
18509;BME280;9383;50.928;12.116;2022-08-21T00:45:23;98771.16;;;17.61;100.00
18509;BME280;9383;50.928;12.116;2022-08-21T00:47:51;98842.41;;;18.05;100.00
18509;BME280;9383;50.928;12.116;2022-08-21T00:50:19;98765.97;;;17.44;100.00
18509;BME280;9383;50.928;12.116;2022-08-21T00:52:50;98763.38;;;17.43;100.00
18509;BME280;9383;50.928;12.116;2022-08-21T00:55:17;98856.22;;;17.99;100.00
18509;BME280;9383;50.928;12.116;2022-08-21T00:57:52;98845.03;;;17.92;100.00
18509;BME280;9383;50.928;12.116;2022-08-21T01:00:31;98856.53;;;17.94;100.00
18509;BME280;9383;50.928;12.116;2022-08-21T01:03:00;98844.81;;;17.82;100.00
18509;BME280;9383;50.928;12.116;2022-08-21T01:05:27;98861.22;;;17.91;100.00
18509;BME280;9383;50.928;12.116;2022-08-21T01:07:54;98761.63;;;17.29;100.00
18509;BME280;9383;50.928;12.116;2022-08-21T01:10:24;98855.31;;;17.85;100.00
18509;BME280;9383;50.928;12.116;2022-08-21T01:12:56;98809.50;;;17.48;100.00
18509;BME280;9383;50.928;12.116;2022-08-21T01:15:32;98851.22;;;17.80;100.00
18509;BME280;9383;50.928;12.116;2022-08-21T01:18:00;98855.72;;;17.79;100.00
18509;BME280;9383;50.928;12.116;2022-08-21T01:20:26;98805.09;;;17.47;100.00
18509;BME280;9383;50.928;12.116;2022-08-21T01:22:53;98809.28;;;17.51;100.00
18509;BME280;9383;50.928;12.116;2022-08-21T01:25:19;98848.41;;;17.81;100.00
18509;BME280;9383;50.928;12.116;2022-08-21T01:27:47;98806.53;;;17.53;100.00
18509;BME280;9383;50.928;12.116;2022-08-21T01:30:22;98854.75;;;17.80;100.00
18509;BME280;9383;50.928;12.116;2022-08-21T01:32:50;98828.22;;;17.63;100.00
18509;BME280;9383;50.928;12.116;2022-08-21T01:35:18;98800.88;;;17.43;100.00
18509;BME280;9383;50.928;12.116;2022-08-21T01:37:45;98742.81;;;17.16;100.00
18509;BME280;9383;50.928;12.116;2022-08-21T01:40:13;98847.97;;;17.75;100.00
18509;BME280;9383;50.928;12.116;2022-08-21T01:42:43;98838.31;;;17.72;100.00
18509;BME280;9383;50.928;12.116;2022-08-21T01:45:10;98781.59;;;17.38;100.00
18509;BME280;9383;50.928;12.116;2022-08-21T01:47:38;98827.91;;;17.67;100.00
18509;BME280;9383;50.928;12.116;2022-08-21T01:50:11;98839.69;;;17.65;100.00
18509;BME280;9383;50.928;12.116;2022-08-21T01:52:37;98830.13;;;17.61;100.00
18509;BME280;9383;50.928;12.116;2022-08-21T01:55:05;98754.47;;;17.15;100.00
18509;BME280;9383;50.928;12.116;2022-08-21T01:57:32;98794.09;;;17.37;100.00
18509;BME280;9383;50.928;12.116;2022-08-21T01:59:59;98790.97;;;17.30;100.00
18509;BME280;9383;50.928;12.116;2022-08-21T02:02:25;98823.56;;;17.52;100.00
18509;BME280;9383;50.928;12.116;2022-08-21T02:04:51;98779.03;;;17.22;100.00
18509;BME280;9383;50.928;12.116;2022-08-21T02:07:17;98753.81;;;16.97;100.00
18509;BME280;9383;50.928;12.116;2022-08-21T02:09:44;98731.41;;;16.85;100.00
18509;BME280;9383;50.928;12.116;2022-08-21T02:12:11;98771.06;;;17.07;100.00
18509;BME280;9383;50.928;12.116;2022-08-21T02:14:38;98739.63;;;16.82;100.00
18509;BME280;9383;50.928;12.116;2022-08-21T02:17:04;98829.81;;;17.38;100.00
18509;BME280;9383;50.928;12.116;2022-08-21T02:19:31;98805.84;;;17.22;100.00
18509;BME280;9383;50.928;12.116;2022-08-21T02:21:57;98753.94;;;16.81;100.00
18509;BME280;9383;50.928;12.116;2022-08-21T02:24:23;98751.47;;;16.78;100.00
18509;BME280;9383;50.928;12.116;2022-08-21T02:26:49;98770.59;;;16.86;100.00
18509;BME280;9383;50.928;12.116;2022-08-21T02:29:15;98767.91;;;16.86;100.00
18509;BME280;9383;50.928;12.116;2022-08-21T02:31:41;98837.91;;;17.23;100.00
18509;BME280;9383;50.928;12.116;2022-08-21T02:34:07;98751.88;;;16.71;100.00
18509;BME280;9383;50.928;12.116;2022-08-21T02:36:35;98840.00;;;17.18;100.00
18509;BME280;9383;50.928;12.116;2022-08-21T02:39:02;98741.94;;;16.59;100.00
18509;BME280;9383;50.928;12.116;2022-08-21T02:41:29;98781.03;;;16.76;100.00
18509;BME280;9383;50.928;12.116;2022-08-21T02:43:55;98778.63;;;16.71;100.00
18509;BME280;9383;50.928;12.116;2022-08-21T02:46:21;98776.13;;;16.68;100.00
18509;BME280;9383;50.928;12.116;2022-08-21T02:48:47;98763.44;;;16.57;100.00
18509;BME280;9383;50.928;12.116;2022-08-21T02:51:17;98840.97;;;17.02;100.00
18509;BME280;9383;50.928;12.116;2022-08-21T02:53:45;98832.22;;;16.99;100.00
18509;BME280;9383;50.928;12.116;2022-08-21T02:56:17;98771.00;;;16.51;100.00
18509;BME280;9383;50.928;12.116;2022-08-21T02:58:49;98837.03;;;16.94;100.00
18509;BME280;9383;50.928;12.116;2022-08-21T03:01:18;98842.47;;;16.92;100.00
18509;BME280;9383;50.928;12.116;2022-08-21T03:03:46;98845.34;;;16.89;100.00
18509;BME280;9383;50.928;12.116;2022-08-21T03:06:18;98843.72;;;16.86;100.00
18509;BME280;9383;50.928;12.116;2022-08-21T03:08:45;98843.84;;;16.85;100.00
18509;BME280;9383;50.928;12.116;2022-08-21T03:11:14;98844.78;;;16.84;100.00
18509;BME280;9383;50.928;12.116;2022-08-21T03:13:40;98796.78;;;16.52;100.00
18509;BME280;9383;50.928;12.116;2022-08-21T03:16:07;98796.72;;;16.53;100.00
18509;BME280;9383;50.928;12.116;2022-08-21T03:18:33;98838.84;;;16.79;100.00
18509;BME280;9383;50.928;12.116;2022-08-21T03:20:59;98745.47;;;16.16;100.00
18509;BME280;9383;50.928;12.116;2022-08-21T03:23:26;98809.88;;;16.56;100.00
18509;BME280;9383;50.928;12.116;2022-08-21T03:25:52;98783.41;;;16.37;100.00
18509;BME280;9383;50.928;12.116;2022-08-21T03:28:20;98727.41;;;16.05;100.00
18509;BME280;9383;50.928;12.116;2022-08-21T03:30:51;98838.47;;;16.70;100.00
18509;BME280;9383;50.928;12.116;2022-08-21T03:33:18;98737.94;;;16.08;100.00
18509;BME280;9383;50.928;12.116;2022-08-21T03:35:53;98778.25;;;16.34;100.00
18509;BME280;9383;50.928;12.116;2022-08-21T03:38:20;98793.53;;;16.32;100.00
18509;BME280;9383;50.928;12.116;2022-08-21T03:40:46;98788.19;;;16.32;100.00
18509;BME280;9383;50.928;12.116;2022-08-21T03:43:12;98784.72;;;16.30;100.00
18509;BME280;9383;50.928;12.116;2022-08-21T03:45:39;98792.94;;;16.27;100.00
18509;BME280;9383;50.928;12.116;2022-08-21T03:48:07;98844.13;;;16.66;100.00
18509;BME280;9383;50.928;12.116;2022-08-21T03:50:38;98838.84;;;16.64;100.00
18509;BME280;9383;50.928;12.116;2022-08-21T03:53:05;98846.03;;;16.64;100.00
18509;BME280;9383;50.928;12.116;2022-08-21T03:55:31;98757.00;;;16.02;100.00
18509;BME280;9383;50.928;12.116;2022-08-21T03:57:58;98794.66;;;16.28;100.00
18509;BME280;9383;50.928;12.116;2022-08-21T04:00:25;98847.00;;;16.63;100.00
18509;BME280;9383;50.928;12.116;2022-08-21T04:02:51;98788.06;;;16.19;100.00
18509;BME280;9383;50.928;12.116;2022-08-21T04:05:20;98832.72;;;16.48;100.00
18509;BME280;9383;50.928;12.116;2022-08-21T04:08:02;98848.88;;;16.60;100.00
18509;BME280;9383;50.928;12.116;2022-08-21T04:10:33;98860.53;;;16.59;100.00
18509;BME280;9383;50.928;12.116;2022-08-21T04:13:00;98759.94;;;15.97;100.00
18509;BME280;9383;50.928;12.116;2022-08-21T04:15:27;98797.72;;;16.22;100.00
18509;BME280;9383;50.928;12.116;2022-08-21T04:17:53;98859.69;;;16.59;100.00
18509;BME280;9383;50.928;12.116;2022-08-21T04:20:21;98857.97;;;16.58;100.00
18509;BME280;9383;50.928;12.116;2022-08-21T04:22:49;98858.13;;;16.55;100.00
18509;BME280;9383;50.928;12.116;2022-08-21T04:25:18;98863.41;;;16.56;100.00
18509;BME280;9383;50.928;12.116;2022-08-21T04:27:44;98823.44;;;16.24;100.00
18509;BME280;9383;50.928;12.116;2022-08-21T04:30:13;98776.28;;;15.93;100.00
18509;BME280;9383;50.928;12.116;2022-08-21T04:32:47;98818.16;;;16.23;100.00
18509;BME280;9383;50.928;12.116;2022-08-21T04:35:15;98869.91;;;16.52;100.00
18509;BME280;9383;50.928;12.116;2022-08-21T04:37:41;98849.94;;;16.43;100.00
18509;BME280;9383;50.928;12.116;2022-08-21T04:40:10;98760.50;;;15.88;100.00
18509;BME280;9383;50.928;12.116;2022-08-21T04:43:01;98835.56;;;16.30;100.00
18509;BME280;9383;50.928;12.116;2022-08-21T04:45:33;98873.53;;;16.51;100.00
18509;BME280;9383;50.928;12.116;2022-08-21T04:48:03;98865.59;;;16.50;100.00
18509;BME280;9383;50.928;12.116;2022-08-21T04:50:47;98773.78;;;15.89;100.00
18509;BME280;9383;50.928;12.116;2022-08-21T04:53:30;98819.97;;;16.22;100.00
18509;BME280;9383;50.928;12.116;2022-08-21T04:56:10;98856.53;;;16.38;100.00
18509;BME280;9383;50.928;12.116;2022-08-21T04:58:38;98841.97;;;16.27;100.00
18509;BME280;9383;50.928;12.116;2022-08-21T05:01:13;98870.94;;;16.50;100.00
18509;BME280;9383;50.928;12.116;2022-08-21T05:03:41;98854.88;;;16.35;100.00
18509;BME280;9383;50.928;12.116;2022-08-21T05:06:11;98809.16;;;16.09;100.00
18509;BME280;9383;50.928;12.116;2022-08-21T05:08:39;98814.53;;;16.09;100.00
18509;BME280;9383;50.928;12.116;2022-08-21T05:11:06;98821.31;;;16.15;100.00
18509;BME280;9383;50.928;12.116;2022-08-21T05:13:33;98801.69;;;16.00;100.00
18509;BME280;9383;50.928;12.116;2022-08-21T05:15:59;98836.03;;;16.22;100.00
18509;BME280;9383;50.928;12.116;2022-08-21T05:18:25;98840.41;;;16.23;100.00
18509;BME280;9383;50.928;12.116;2022-08-21T05:20:51;98885.97;;;16.52;100.00
18509;BME280;9383;50.928;12.116;2022-08-21T05:23:17;98882.69;;;16.47;100.00
18509;BME280;9383;50.928;12.116;2022-08-21T05:25:44;98885.97;;;16.52;100.00
18509;BME280;9383;50.928;12.116;2022-08-21T05:28:11;98882.34;;;16.53;100.00
18509;BME280;9383;50.928;12.116;2022-08-21T05:30:38;98800.25;;;15.94;100.00
18509;BME280;9383;50.928;12.116;2022-08-21T05:33:06;98893.81;;;16.55;100.00
18509;BME280;9383;50.928;12.116;2022-08-21T05:35:33;98831.06;;;16.16;100.00
18509;BME280;9383;50.928;12.116;2022-08-21T05:38:00;98897.16;;;16.59;100.00
18509;BME280;9383;50.928;12.116;2022-08-21T05:40:27;98825.44;;;16.21;100.00
18509;BME280;9383;50.928;12.116;2022-08-21T05:42:55;98896.28;;;16.58;100.00
18509;BME280;9383;50.928;12.116;2022-08-21T05:45:26;98801.03;;;16.11;100.00
18509;BME280;9383;50.928;12.116;2022-08-21T05:47:52;98788.31;;;16.00;100.00
18509;BME280;9383;50.928;12.116;2022-08-21T05:50:19;98895.47;;;16.72;100.00
18509;BME280;9383;50.928;12.116;2022-08-21T05:52:46;98873.66;;;16.64;100.00
18509;BME280;9383;50.928;12.116;2022-08-21T05:55:13;98886.94;;;16.80;100.00
18509;BME280;9383;50.928;12.116;2022-08-21T05:57:39;98827.56;;;16.44;100.00
18509;BME280;9383;50.928;12.116;2022-08-21T06:00:08;98815.44;;;16.39;100.00
18509;BME280;9383;50.928;12.116;2022-08-21T06:02:39;98849.47;;;16.66;100.00
18509;BME280;9383;50.928;12.116;2022-08-21T06:05:06;98884.84;;;16.85;100.00
18509;BME280;9383;50.928;12.116;2022-08-21T06:07:33;98836.56;;;16.58;100.00
18509;BME280;9383;50.928;12.116;2022-08-21T06:09:59;98896.44;;;17.00;100.00
18509;BME280;9383;50.928;12.116;2022-08-21T06:12:26;98811.81;;;16.54;100.00
18509;BME280;9383;50.928;12.116;2022-08-21T06:14:52;98814.28;;;16.57;100.00
18509;BME280;9383;50.928;12.116;2022-08-21T06:17:19;98904.69;;;17.12;100.00
18509;BME280;9383;50.928;12.116;2022-08-21T06:19:51;98892.25;;;17.11;100.00
18509;BME280;9383;50.928;12.116;2022-08-21T06:22:17;98861.13;;;16.94;100.00
18509;BME280;9383;50.928;12.116;2022-08-21T06:24:44;98813.59;;;16.68;100.00
18509;BME280;9383;50.928;12.116;2022-08-21T06:27:11;98904.47;;;17.29;100.00
18509;BME280;9383;50.928;12.116;2022-08-21T06:29:37;98823.38;;;16.84;100.00
18509;BME280;9383;50.928;12.116;2022-08-21T06:32:04;98835.41;;;16.91;100.00
18509;BME280;9383;50.928;12.116;2022-08-21T06:34:37;98884.19;;;17.25;100.00
18509;BME280;9383;50.928;12.116;2022-08-21T06:37:04;98851.31;;;17.09;100.00
18509;BME280;9383;50.928;12.116;2022-08-21T06:39:31;98807.59;;;16.94;100.00
18509;BME280;9383;50.928;12.116;2022-08-21T06:41:58;98915.69;;;17.64;100.00
18509;BME280;9383;50.928;12.116;2022-08-21T06:44:25;98865.69;;;17.35;100.00
18509;BME280;9383;50.928;12.116;2022-08-21T06:46:52;98838.84;;;17.22;100.00
18509;BME280;9383;50.928;12.116;2022-08-21T06:49:17;98854.91;;;17.37;100.00
18509;BME280;9383;50.928;12.116;2022-08-21T06:51:44;98821.81;;;17.23;100.00
18509;BME280;9383;50.928;12.116;2022-08-21T06:54:10;98858.28;;;17.53;100.00
18509;BME280;9383;50.928;12.116;2022-08-21T06:56:36;98858.75;;;17.60;100.00
18509;BME280;9383;50.928;12.116;2022-08-21T06:59:05;98858.25;;;17.68;100.00
18509;BME280;9383;50.928;12.116;2022-08-21T07:01:31;98907.34;;;18.10;100.00
18509;BME280;9383;50.928;12.116;2022-08-21T07:03:58;98828.97;;;17.65;100.00
18509;BME280;9383;50.928;12.116;2022-08-21T07:06:24;98884.56;;;18.03;100.00
18509;BME280;9383;50.928;12.116;2022-08-21T07:08:51;98848.69;;;17.91;100.00
18509;BME280;9383;50.928;12.116;2022-08-21T07:11:24;98926.53;;;18.45;100.00
18509;BME280;9383;50.928;12.116;2022-08-21T07:13:51;98914.50;;;18.50;100.00
18509;BME280;9383;50.928;12.116;2022-08-21T07:16:22;98857.66;;;18.18;100.00
18509;BME280;9383;50.928;12.116;2022-08-21T07:18:48;98840.81;;;18.16;100.00
18509;BME280;9383;50.928;12.116;2022-08-21T07:21:16;98900.38;;;18.61;100.00
18509;BME280;9383;50.928;12.116;2022-08-21T07:23:48;98826.88;;;18.23;100.00
18509;BME280;9383;50.928;12.116;2022-08-21T07:26:19;98911.53;;;18.81;100.00
18509;BME280;9383;50.928;12.116;2022-08-21T07:28:48;98911.97;;;18.88;100.00
18509;BME280;9383;50.928;12.116;2022-08-21T07:31:18;98914.88;;;18.97;100.00
18509;BME280;9383;50.928;12.116;2022-08-21T07:33:46;98885.97;;;18.88;100.00
18509;BME280;9383;50.928;12.116;2022-08-21T07:36:14;98906.81;;;19.10;99.89
18509;BME280;9383;50.928;12.116;2022-08-21T07:38:40;98896.81;;;19.12;99.21
18509;BME280;9383;50.928;12.116;2022-08-21T07:41:14;98903.69;;;19.30;98.95
18509;BME280;9383;50.928;12.116;2022-08-21T07:43:44;98900.56;;;19.36;96.98
18509;BME280;9383;50.928;12.116;2022-08-21T07:46:12;98901.81;;;19.43;96.43
18509;BME280;9383;50.928;12.116;2022-08-21T07:48:58;98843.97;;;19.13;96.03
18509;BME280;9383;50.928;12.116;2022-08-21T07:51:43;98797.75;;;18.95;96.32
18509;BME280;9383;50.928;12.116;2022-08-21T07:54:29;98825.34;;;19.23;96.70
18509;BME280;9383;50.928;12.116;2022-08-21T07:57:15;98854.41;;;19.42;94.38
18509;BME280;9383;50.928;12.116;2022-08-21T08:00:04;98809.84;;;19.26;94.67
18509;BME280;9383;50.928;12.116;2022-08-21T08:02:52;98814.66;;;19.34;94.59
18509;BME280;9383;50.928;12.116;2022-08-21T08:05:38;98839.50;;;19.62;94.57
18509;BME280;9383;50.928;12.116;2022-08-21T08:08:25;98795.56;;;19.50;94.65
18509;BME280;9383;50.928;12.116;2022-08-21T08:11:12;98876.38;;;19.98;90.92
18509;BME280;9383;50.928;12.116;2022-08-21T08:13:48;98890.28;;;20.16;91.39
18509;BME280;9383;50.928;12.116;2022-08-21T08:16:16;98883.47;;;20.23;91.45
18509;BME280;9383;50.928;12.116;2022-08-21T08:18:42;98804.97;;;19.80;90.97
18509;BME280;9383;50.928;12.116;2022-08-21T08:21:12;98840.06;;;20.03;88.88
18509;BME280;9383;50.928;12.116;2022-08-21T08:23:38;98876.72;;;20.29;88.45
18509;BME280;9383;50.928;12.116;2022-08-21T08:26:05;98848.44;;;20.12;86.69
18509;BME280;9383;50.928;12.116;2022-08-21T08:28:32;98844.63;;;20.14;84.95
18509;BME280;9383;50.928;12.116;2022-08-21T08:31:00;98891.09;;;20.41;82.07
18509;BME280;9383;50.928;12.116;2022-08-21T08:33:26;98871.75;;;20.35;83.11
18509;BME280;9383;50.928;12.116;2022-08-21T08:35:53;98827.00;;;20.10;83.40
18509;BME280;9383;50.928;12.116;2022-08-21T08:38:21;98872.03;;;20.55;82.67
18509;BME280;9383;50.928;12.116;2022-08-21T08:41:02;98855.75;;;20.45;82.03
18509;BME280;9383;50.928;12.116;2022-08-21T08:43:34;98873.28;;;20.62;81.25
18509;BME280;9383;50.928;12.116;2022-08-21T08:46:06;98875.72;;;20.65;80.87
18509;BME280;9383;50.928;12.116;2022-08-21T08:48:51;98852.09;;;20.58;81.56
18509;BME280;9383;50.928;12.116;2022-08-21T08:51:30;98844.84;;;20.58;82.01
18509;BME280;9383;50.928;12.116;2022-08-21T08:54:11;98880.66;;;20.83;80.17
18509;BME280;9383;50.928;12.116;2022-08-21T08:56:40;98828.84;;;20.57;78.68
18509;BME280;9383;50.928;12.116;2022-08-21T08:59:23;98883.50;;;20.93;79.22
18509;BME280;9383;50.928;12.116;2022-08-21T09:01:51;98885.59;;;21.01;80.14
18509;BME280;9383;50.928;12.116;2022-08-21T09:04:24;98881.66;;;21.05;79.22
18509;BME280;9383;50.928;12.116;2022-08-21T09:07:09;98886.81;;;21.08;78.73
18509;BME280;9383;50.928;12.116;2022-08-21T09:09:55;98884.84;;;21.10;76.99
18509;BME280;9383;50.928;12.116;2022-08-21T09:12:50;98833.75;;;20.74;77.01
18509;BME280;9383;50.928;12.116;2022-08-21T09:16:05;98796.16;;;20.61;76.69
18509;BME280;9383;50.928;12.116;2022-08-21T09:18:47;98840.03;;;20.86;74.67
18509;BME280;9383;50.928;12.116;2022-08-21T09:21:43;98888.78;;;21.17;74.51
18509;BME280;9383;50.928;12.116;2022-08-21T09:27:14;98877.13;;;21.17;74.65
18509;BME280;9383;50.928;12.116;2022-08-21T09:29:46;98886.56;;;21.22;73.74
18509;BME280;9383;50.928;12.116;2022-08-21T09:32:24;98888.88;;;21.27;74.76
18509;BME280;9383;50.928;12.116;2022-08-21T09:35:17;98888.66;;;21.30;73.30
18509;BME280;9383;50.928;12.116;2022-08-21T09:38:04;98892.66;;;21.36;74.03
18509;BME280;9383;50.928;12.116;2022-08-21T09:40:43;98876.75;;;21.33;73.99
18509;BME280;9383;50.928;12.116;2022-08-21T09:43:24;98833.63;;;21.10;73.99
18509;BME280;9383;50.928;12.116;2022-08-21T09:46:20;98890.72;;;21.49;74.17
18509;BME280;9383;50.928;12.116;2022-08-21T09:48:52;98833.88;;;21.18;74.12
18509;BME280;9383;50.928;12.116;2022-08-21T09:51:29;98891.44;;;21.52;70.94
18509;BME280;9383;50.928;12.116;2022-08-21T09:57:25;98893.16;;;21.53;71.11
18509;BME280;9383;50.928;12.116;2022-08-21T10:00:27;98899.03;;;21.46;69.03
18509;BME280;9383;50.928;12.116;2022-08-21T10:03:18;98889.13;;;21.47;70.33
18509;BME280;9383;50.928;12.116;2022-08-21T10:06:04;98885.44;;;21.48;69.79
18509;BME280;9383;50.928;12.116;2022-08-21T10:08:33;98890.84;;;21.48;69.81
18509;BME280;9383;50.928;12.116;2022-08-21T10:11:09;98834.00;;;21.17;70.54
18509;BME280;9383;50.928;12.116;2022-08-21T10:19:29;98858.72;;;21.45;69.88
18509;BME280;9383;50.928;12.116;2022-08-21T10:22:37;98886.03;;;21.63;68.46
18509;BME280;9383;50.928;12.116;2022-08-21T10:25:18;98887.25;;;21.70;69.44
18509;BME280;9383;50.928;12.116;2022-08-21T10:28:31;98871.78;;;21.72;69.13
18509;BME280;9383;50.928;12.116;2022-08-21T10:31:14;98831.59;;;21.58;69.38
18509;BME280;9383;50.928;12.116;2022-08-21T10:37:18;98882.47;;;22.06;68.24
18509;BME280;9383;50.928;12.116;2022-08-21T10:40:15;98835.56;;;21.86;67.92
18509;BME280;9383;50.928;12.116;2022-08-21T10:43:16;98875.31;;;22.17;64.32
18509;BME280;9383;50.928;12.116;2022-08-21T10:48:58;98838.72;;;21.91;65.79
18509;BME280;9383;50.928;12.116;2022-08-21T10:51:35;98872.91;;;22.14;65.73
18509;BME280;9383;50.928;12.116;2022-08-21T10:54:37;98864.78;;;22.14;66.96
18509;BME280;9383;50.928;12.116;2022-08-21T10:57:19;98864.75;;;22.25;68.04
18509;BME280;9383;50.928;12.116;2022-08-21T11:00:09;98850.25;;;22.26;67.32
18509;BME280;9383;50.928;12.116;2022-08-21T11:02:53;98811.56;;;22.04;64.97
18509;BME280;9383;50.928;12.116;2022-08-21T11:05:41;98827.50;;;22.08;64.45
18509;BME280;9383;50.928;12.116;2022-08-21T11:08:41;98860.13;;;22.37;65.10
18509;BME280;9383;50.928;12.116;2022-08-21T11:11:22;98836.16;;;22.23;64.59
18509;BME280;9383;50.928;12.116;2022-08-21T11:14:30;98850.97;;;22.28;64.99
18509;BME280;9383;50.928;12.116;2022-08-21T11:17:13;98859.72;;;22.42;64.86
18509;BME280;9383;50.928;12.116;2022-08-21T11:19:59;98860.72;;;22.41;62.85
18509;BME280;9383;50.928;12.116;2022-08-21T11:22:47;98847.66;;;22.46;64.83
18509;BME280;9383;50.928;12.116;2022-08-21T11:25:42;98848.00;;;22.31;62.79
18509;BME280;9383;50.928;12.116;2022-08-21T11:28:22;98791.38;;;21.99;61.23
18509;BME280;9383;50.928;12.116;2022-08-21T11:31:10;98859.13;;;22.38;63.22
18509;BME280;9383;50.928;12.116;2022-08-21T11:39:24;98850.75;;;22.41;62.57
18509;BME280;9383;50.928;12.116;2022-08-21T11:42:24;98846.34;;;22.40;61.32
18509;BME280;9383;50.928;12.116;2022-08-21T11:45:11;98843.66;;;22.40;60.99
18509;BME280;9383;50.928;12.116;2022-08-21T11:48:41;98786.22;;;22.17;62.02
18509;BME280;9383;50.928;12.116;2022-08-21T11:51:23;98781.66;;;22.17;61.98
18509;BME280;9383;50.928;12.116;2022-08-21T11:54:15;98827.44;;;22.40;60.04
18509;BME280;9383;50.928;12.116;2022-08-21T11:57:00;98776.75;;;22.01;59.64
18509;BME280;9383;50.928;12.116;2022-08-21T12:02:40;98821.53;;;22.25;60.92
18509;BME280;9383;50.928;12.116;2022-08-21T12:05:27;98830.38;;;22.27;60.32
18509;BME280;9383;50.928;12.116;2022-08-21T12:08:05;98820.00;;;22.32;61.07
18509;BME280;9383;50.928;12.116;2022-08-21T12:10:47;98794.94;;;22.20;58.95
18509;BME280;9383;50.928;12.116;2022-08-21T12:13:34;98772.59;;;21.97;58.93
18509;BME280;9383;50.928;12.116;2022-08-21T12:16:13;98819.88;;;22.34;59.48
18509;BME280;9383;50.928;12.116;2022-08-21T12:18:42;98820.88;;;22.33;59.56
18509;BME280;9383;50.928;12.116;2022-08-21T12:21:27;98789.53;;;22.20;59.89
18509;BME280;9383;50.928;12.116;2022-08-21T12:26:57;98811.13;;;22.42;60.43
18509;BME280;9383;50.928;12.116;2022-08-21T12:29:28;98818.69;;;22.48;58.80
18509;BME280;9383;50.928;12.116;2022-08-21T12:32:01;98814.66;;;22.42;57.00
18509;BME280;9383;50.928;12.116;2022-08-21T12:37:50;98802.09;;;22.31;55.62
18509;BME280;9383;50.928;12.116;2022-08-21T12:40:37;98806.00;;;22.39;57.50
18509;BME280;9383;50.928;12.116;2022-08-21T12:43:14;98802.16;;;22.41;59.02
18509;BME280;9383;50.928;12.116;2022-08-21T12:45:46;98766.78;;;22.23;58.71
18509;BME280;9383;50.928;12.116;2022-08-21T12:51:16;98805.19;;;22.69;60.54
18509;BME280;9383;50.928;12.116;2022-08-21T12:53:53;98753.41;;;22.43;60.26
18509;BME280;9383;50.928;12.116;2022-08-21T12:56:24;98809.06;;;22.86;58.79
18509;BME280;9383;50.928;12.116;2022-08-21T12:59:05;98787.91;;;22.82;58.66
18509;BME280;9383;50.928;12.116;2022-08-21T13:01:43;98796.31;;;22.88;57.93
18509;BME280;9383;50.928;12.116;2022-08-21T13:04:17;98790.34;;;22.95;58.00
18509;BME280;9383;50.928;12.116;2022-08-21T13:06:51;98784.91;;;22.85;55.91
18509;BME280;9383;50.928;12.116;2022-08-21T13:09:24;98802.03;;;22.95;57.40
18509;BME280;9383;50.928;12.116;2022-08-21T13:11:52;98760.81;;;22.72;57.40
18509;BME280;9383;50.928;12.116;2022-08-21T13:14:41;98799.47;;;23.03;56.99
18509;BME280;9383;50.928;12.116;2022-08-21T13:17:10;98798.34;;;23.06;57.46
18509;BME280;9383;50.928;12.116;2022-08-21T13:19:37;98789.94;;;22.99;56.10
18509;BME280;9383;50.928;12.116;2022-08-21T13:22:12;98761.72;;;22.82;55.50
18509;BME280;9383;50.928;12.116;2022-08-21T13:24:38;98791.78;;;22.99;55.62
18509;BME280;9383;50.928;12.116;2022-08-21T13:27:18;98781.34;;;22.84;55.36
18509;BME280;9383;50.928;12.116;2022-08-21T13:29:44;98792.16;;;22.84;54.79
18509;BME280;9383;50.928;12.116;2022-08-21T13:32:22;98787.00;;;22.71;54.44
18509;BME280;9383;50.928;12.116;2022-08-21T13:34:50;98779.28;;;22.67;54.89
18509;BME280;9383;50.928;12.116;2022-08-21T13:37:17;98789.53;;;22.73;56.09
18509;BME280;9383;50.928;12.116;2022-08-21T13:39:52;98716.34;;;22.24;54.05
18509;BME280;9383;50.928;12.116;2022-08-21T13:42:19;98789.69;;;22.71;55.51
18509;BME280;9383;50.928;12.116;2022-08-21T13:44:47;98760.19;;;22.58;55.49
18509;BME280;9383;50.928;12.116;2022-08-21T13:47:16;98748.66;;;22.56;55.39
18509;BME280;9383;50.928;12.116;2022-08-21T13:49:48;98788.44;;;22.85;55.20
18509;BME280;9383;50.928;12.116;2022-08-21T13:52:21;98789.91;;;22.89;54.69
18509;BME280;9383;50.928;12.116;2022-08-21T13:55:12;98732.78;;;22.63;54.28
18509;BME280;9383;50.928;12.116;2022-08-21T13:57:38;98742.47;;;22.75;54.98
18509;BME280;9383;50.928;12.116;2022-08-21T14:02:45;98786.00;;;23.13;54.88
18509;BME280;9383;50.928;12.116;2022-08-21T14:05:32;98784.56;;;23.19;55.12